Time;durP1;ratioP1;P1;durP2;ratioP2;P2;SDS_P1;SDS_P2;PMS_P1;PMS_P2;Temp;Humidity;BMP_temperature;BMP_pressure;BME280_temperature;BME280_humidity;BME280_pressure;Samples;Min_cycle;Max_cycle;Signal;HPM_P1;HPM_P2
2023/02/26 00:01:01;;;;;;;4.00;2.17;;;;;;;;;;5060021;28;20246;-62
2023/02/26 00:03:29;;;;;;;4.13;1.77;;;;;;;;;;5059856;28;20231;-62
2023/02/26 00:05:59;;;;;;;4.13;2.20;;;;;;;;;;5059828;28;20626;-62
2023/02/26 00:08:30;;;;;;;5.43;2.23;;;;;;;;;;5060203;28;20210;-61
2023/02/26 00:11:00;;;;;;;7.43;2.23;;;;;;;;;;5059788;28;20301;-62
2023/02/26 00:13:30;;;;;;;3.50;2.10;;;;;;;;;;5059755;28;20227;-61
2023/02/26 00:15:59;;;;;;;4.27;1.87;;;;;;;;;;5059408;28;20717;-62
2023/02/26 00:18:28;;;;;;;3.90;2.50;;;;;;;;;;5059692;28;20223;-62
2023/02/26 00:20:56;;;;;;;5.30;1.90;;;;;;;;;;5043113;28;20203;-62
2023/02/26 00:23:24;;;;;;;3.30;2.00;;;;;;;;;;5039810;28;20314;-61
2023/02/26 00:25:52;;;;;;;4.07;1.67;;;;;;;;;;5039524;28;20821;-62
2023/02/26 00:28:21;;;;;;;6.77;2.27;;;;;;;;;;5039572;28;20211;-62
2023/02/26 00:30:50;;;;;;;1.97;1.80;;;;;;;;;;5039292;28;20204;-62
2023/02/26 00:33:19;;;;;;;5.23;2.07;;;;;;;;;;5039736;28;20230;-62
2023/02/26 00:35:47;;;;;;;3.77;1.83;;;;;;;;;;5045357;28;20235;-61
2023/02/26 00:38:16;;;;;;;2.77;2.13;;;;;;;;;;5059262;28;20663;-62
2023/02/26 00:40:46;;;;;;;4.40;1.90;;;;;;;;;;5039712;28;20239;-62
2023/02/26 00:43:15;;;;;;;1.80;1.70;;;;;;;;;;5039336;28;20241;-62
2023/02/26 00:45:47;;;;;;;3.37;2.10;;;;;;;;;;5039081;28;20290;-62
2023/02/26 00:48:32;;;;;;;5.03;2.37;;;;;;;;;;5038595;28;20207;-62
2023/02/26 00:51:06;;;;;;;2.93;2.03;;;;;;;;;;5039141;28;20246;-62
2023/02/26 00:53:40;;;;;;;5.53;1.97;;;;;;;;;;5039355;28;20303;-62
2023/02/26 00:56:08;;;;;;;6.17;1.63;;;;;;;;;;5039468;28;20238;-62
2023/02/26 00:58:36;;;;;;;6.27;2.20;;;;;;;;;;5039427;28;20246;-62
2023/02/26 01:01:04;;;;;;;6.93;2.33;;;;;;;;;;5038853;28;20575;-62
2023/02/26 01:03:34;;;;;;;3.03;2.00;;;;;;;;;;5039162;28;20289;-62
2023/02/26 01:06:03;;;;;;;3.23;2.03;;;;;;;;;;5038715;28;20310;-62
2023/02/26 01:08:33;;;;;;;3.93;2.43;;;;;;;;;;5038984;28;20207;-62
2023/02/26 01:11:02;;;;;;;38.27;19.83;;;;;;;;;;5038773;28;20678;-62
2023/02/26 01:13:30;;;;;;;10.27;5.70;;;;;;;;;;5038823;28;20837;-61
2023/02/26 01:16:02;;;;;;;4.80;2.53;;;;;;;;;;5038446;28;20222;-62
2023/02/26 01:18:33;;;;;;;2.97;1.80;;;;;;;;;;5038841;28;20550;-62
2023/02/26 01:21:03;;;;;;;5.63;2.27;;;;;;;;;;5051703;28;20234;-61
2023/02/26 01:23:32;;;;;;;5.03;1.83;;;;;;;;;;5038839;28;20246;-61
2023/02/26 01:26:03;;;;;;;8.80;2.53;;;;;;;;;;5038818;28;20211;-61
2023/02/26 01:28:31;;;;;;;4.07;1.97;;;;;;;;;;5038592;28;20920;-62
2023/02/26 01:31:03;;;;;;;3.00;2.10;;;;;;;;;;5038321;28;20211;-61
2023/02/26 01:33:34;;;;;;;7.20;2.10;;;;;;;;;;5038489;28;20463;-62
2023/02/26 01:36:07;;;;;;;7.07;2.70;;;;;;;;;;5046741;28;20325;-62
2023/02/26 01:38:39;;;;;;;5.27;1.97;;;;;;;;;;5055895;28;20211;-62
2023/02/26 01:41:13;;;;;;;7.63;2.43;;;;;;;;;;5038352;28;20973;-62
2023/02/26 01:43:45;;;;;;;4.83;2.17;;;;;;;;;;5038304;28;20490;-62
2023/02/26 01:46:16;;;;;;;4.53;2.60;;;;;;;;;;5038034;28;20496;-61
2023/02/26 01:48:48;;;;;;;4.50;2.40;;;;;;;;;;5038445;28;20504;-62
2023/02/26 01:51:18;;;;;;;2.03;1.93;;;;;;;;;;5038122;28;20900;-62
2023/02/26 01:53:46;;;;;;;5.90;2.40;;;;;;;;;;5038610;28;20464;-62
2023/02/26 01:56:16;;;;;;;5.00;2.53;;;;;;;;;;5038036;28;20957;-62
2023/02/26 01:58:45;;;;;;;2.33;2.17;;;;;;;;;;5038131;28;20452;-62
2023/02/26 02:01:13;;;;;;;2.27;2.07;;;;;;;;;;5037600;28;20496;-62
2023/02/26 02:03:42;;;;;;;5.53;2.27;;;;;;;;;;5038114;28;20486;-62
2023/02/26 02:06:14;;;;;;;10.63;2.77;;;;;;;;;;5037746;28;20465;-61
2023/02/26 02:08:44;;;;;;;3.43;1.90;;;;;;;;;;5038201;28;20229;-62
2023/02/26 02:11:13;;;;;;;5.93;2.23;;;;;;;;;;5037805;28;20211;-61
2023/02/26 02:13:46;;;;;;;4.57;2.00;;;;;;;;;;5037821;28;20980;-61
2023/02/26 02:16:17;;;;;;;3.27;2.00;;;;;;;;;;5037485;28;20211;-61
2023/02/26 02:18:50;;;;;;;5.50;2.33;;;;;;;;;;5037826;28;20948;-62
2023/02/26 02:21:27;;;;;;;5.67;2.20;;;;;;;;;;5037883;28;20256;-62
2023/02/26 02:24:01;;;;;;;3.37;2.57;;;;;;;;;;5037762;28;20262;-61
2023/02/26 02:26:47;;;;;;;8.67;2.70;;;;;;;;;;5037742;28;20622;-62
2023/02/26 02:29:32;;;;;;;3.47;2.30;;;;;;;;;;5037606;28;20450;-62
2023/02/26 02:32:05;;;;;;;3.40;2.30;;;;;;;;;;5037516;28;20442;-62
2023/02/26 02:34:36;;;;;;;5.80;2.80;;;;;;;;;;5037758;28;20306;-62
2023/02/26 02:37:07;;;;;;;3.57;2.03;;;;;;;;;;5053951;28;20623;-62
2023/02/26 02:39:39;;;;;;;9.07;3.07;;;;;;;;;;5047292;28;20210;-61
2023/02/26 02:42:08;;;;;;;5.00;2.30;;;;;;;;;;5037506;28;20450;-62
2023/02/26 02:44:39;;;;;;;6.70;2.40;;;;;;;;;;5037669;28;20234;-61
2023/02/26 02:47:10;;;;;;;5.43;2.60;;;;;;;;;;5037437;28;20447;-62
2023/02/26 02:49:41;;;;;;;6.07;2.60;;;;;;;;;;5037671;28;20478;-62
2023/02/26 02:52:13;;;;;;;6.33;2.10;;;;;;;;;;5044491;28;20445;-62
2023/02/26 02:54:44;;;;;;;5.40;2.00;;;;;;;;;;5057201;28;20995;-62
2023/02/26 02:57:17;;;;;;;4.43;2.40;;;;;;;;;;5057618;28;20477;-62
2023/02/26 02:59:47;;;;;;;4.07;2.20;;;;;;;;;;5057265;28;20515;-62
2023/02/26 03:02:18;;;;;;;5.50;2.57;;;;;;;;;;5057067;28;20451;-62
2023/02/26 03:04:46;;;;;;;3.13;2.10;;;;;;;;;;5056958;28;20489;-61
2023/02/26 03:07:14;;;;;;;3.97;2.50;;;;;;;;;;5057271;28;20480;-62
2023/02/26 03:09:43;;;;;;;4.00;2.60;;;;;;;;;;5057446;28;20455;-61
2023/02/26 03:12:11;;;;;;;2.87;2.43;;;;;;;;;;5058168;28;20813;-62
2023/02/26 03:14:39;;;;;;;4.57;2.20;;;;;;;;;;5061170;28;20465;-62
2023/02/26 03:17:17;;;;;;;6.90;2.83;;;;;;;;;;5061086;28;20528;-62
2023/02/26 03:19:55;;;;;;;7.27;2.70;;;;;;;;;;5060845;28;20448;-62
2023/02/26 03:22:25;;;;;;;5.37;2.40;;;;;;;;;;5045143;28;20484;-61
2023/02/26 03:24:55;;;;;;;3.90;2.57;;;;;;;;;;5041098;28;20493;-62
2023/02/26 03:27:26;;;;;;;2.27;1.80;;;;;;;;;;5040840;28;20533;-61
2023/02/26 03:29:56;;;;;;;3.90;2.57;;;;;;;;;;5041108;28;20456;-62
2023/02/26 03:32:26;;;;;;;9.10;3.43;;;;;;;;;;5040675;28;20477;-62
2023/02/26 03:34:59;;;;;;;2.40;2.03;;;;;;;;;;5040668;28;20443;-61
2023/02/26 03:37:29;;;;;;;2.90;2.10;;;;;;;;;;5060821;28;20448;-62
2023/02/26 03:40:00;;;;;;;6.13;2.43;;;;;;;;;;5046505;28;20537;-61
2023/02/26 03:42:33;;;;;;;4.07;2.10;;;;;;;;;;5040868;28;20442;-62
2023/02/26 03:45:02;;;;;;;3.93;2.47;;;;;;;;;;5040309;28;20564;-61
2023/02/26 03:47:31;;;;;;;6.63;2.33;;;;;;;;;;5040997;28;20453;-62
2023/02/26 03:50:03;;;;;;;3.97;2.67;;;;;;;;;;5040562;28;20442;-62
2023/02/26 03:52:33;;;;;;;2.67;2.47;;;;;;;;;;5040611;28;20529;-62
2023/02/26 03:55:02;;;;;;;2.33;2.10;;;;;;;;;;5040589;28;20534;-62
2023/02/26 03:57:30;;;;;;;3.13;1.93;;;;;;;;;;5040330;28;20969;-62
2023/02/26 03:59:58;;;;;;;2.87;2.53;;;;;;;;;;5040424;28;20478;-62
2023/02/26 04:02:31;;;;;;;2.20;2.00;;;;;;;;;;5040025;28;20545;-62
2023/02/26 04:05:03;;;;;;;2.20;2.10;;;;;;;;;;5040236;28;20481;-63
2023/02/26 04:07:31;;;;;;;3.40;2.13;;;;;;;;;;5040382;28;20450;-62
2023/02/26 04:09:59;;;;;;;3.80;2.33;;;;;;;;;;5047249;28;20453;-62
2023/02/26 04:12:28;;;;;;;2.60;2.40;;;;;;;;;;5060101;28;20449;-62
2023/02/26 04:14:56;;;;;;;3.50;2.20;;;;;;;;;;5060191;28;20452;-61
2023/02/26 04:17:24;;;;;;;4.40;2.30;;;;;;;;;;5059635;28;20979;-63
2023/02/26 04:19:52;;;;;;;2.97;2.40;;;;;;;;;;5051754;28;20533;-62
2023/02/26 04:22:22;;;;;;;5.43;2.37;;;;;;;;;;5039777;28;20525;-62
2023/02/26 04:24:50;;;;;;;2.30;2.13;;;;;;;;;;5039561;28;20914;-62
2023/02/26 04:27:18;;;;;;;4.43;2.33;;;;;;;;;;5040025;28;20460;-62
2023/02/26 04:29:46;;;;;;;5.57;2.27;;;;;;;;;;5040001;28;20446;-61
2023/02/26 04:32:14;;;;;;;2.73;2.53;;;;;;;;;;5039633;28;20450;-62
2023/02/26 04:34:42;;;;;;;3.93;2.17;;;;;;;;;;5039239;28;20992;-63
2023/02/26 04:37:10;;;;;;;3.43;2.37;;;;;;;;;;5057434;28;20446;-62
2023/02/26 04:39:40;;;;;;;3.23;2.20;;;;;;;;;;5048337;28;20477;-62
2023/02/26 04:42:08;;;;;;;3.03;2.43;;;;;;;;;;5039696;28;20447;-62
2023/02/26 04:44:36;;;;;;;2.97;2.27;;;;;;;;;;5039584;28;20566;-62
2023/02/26 04:47:04;;;;;;;3.03;2.00;;;;;;;;;;5039299;28;20477;-62
2023/02/26 04:49:32;;;;;;;4.03;2.20;;;;;;;;;;5039245;28;20478;-62
2023/02/26 04:52:00;;;;;;;3.00;2.43;;;;;;;;;;5039486;28;20477;-61
2023/02/26 04:54:28;;;;;;;3.53;2.40;;;;;;;;;;5039671;28;20501;-62
2023/02/26 04:56:57;;;;;;;2.40;2.17;;;;;;;;;;5046105;28;20449;-62
2023/02/26 04:59:25;;;;;;;2.30;2.07;;;;;;;;;;5059321;28;20446;-61
2023/02/26 05:01:53;;;;;;;4.00;2.97;;;;;;;;;;5058780;28;20476;-61
2023/02/26 05:04:21;;;;;;;2.37;2.27;;;;;;;;;;5058989;28;20519;-61
2023/02/26 05:06:49;;;;;;;2.00;1.90;;;;;;;;;;5058891;28;21050;-62
2023/02/26 05:09:17;;;;;;;3.03;2.10;;;;;;;;;;5058879;28;20810;-62
2023/02/26 05:11:45;;;;;;;5.20;2.43;;;;;;;;;;5059119;28;20528;-61
2023/02/26 05:14:14;;;;;;;3.20;2.10;;;;;;;;;;5058666;28;20834;-62
2023/02/26 05:16:43;;;;;;;2.07;1.97;;;;;;;;;;5058787;28;20442;-62
2023/02/26 05:19:10;;;;;;;5.13;2.37;;;;;;;;;;5058612;28;20452;-61
2023/02/26 05:21:39;;;;;;;4.80;1.90;;;;;;;;;;5048743;28;20457;-61
2023/02/26 05:24:07;;;;;;;2.33;2.10;;;;;;;;;;5038548;28;20481;-62
2023/02/26 05:26:35;;;;;;;3.20;2.13;;;;;;;;;;5038601;28;20918;-61
2023/02/26 05:29:03;;;;;;;2.63;2.20;;;;;;;;;;5038795;28;20446;-62
2023/02/26 05:31:33;;;;;;;5.50;2.60;;;;;;;;;;5038285;28;20450;-64
2023/02/26 05:34:01;;;;;;;1.90;1.77;;;;;;;;;;5044574;28;21051;-64
2023/02/26 05:36:29;;;;;;;2.20;2.00;;;;;;;;;;5049635;28;20477;-64
2023/02/26 05:38:57;;;;;;;2.43;1.73;;;;;;;;;;5052665;28;20446;-64
2023/02/26 05:41:25;;;;;;;2.20;2.00;;;;;;;;;;5038626;28;20533;-64
2023/02/26 05:43:53;;;;;;;5.07;2.53;;;;;;;;;;5045007;28;20536;-64
2023/02/26 05:46:21;;;;;;;3.70;1.80;;;;;;;;;;5058036;28;20487;-63
2023/02/26 05:48:51;;;;;;;3.07;2.30;;;;;;;;;;5058224;28;20820;-63
2023/02/26 05:51:19;;;;;;;2.77;1.93;;;;;;;;;;5057941;28;20480;-63
2023/02/26 05:53:47;;;;;;;1.70;1.60;;;;;;;;;;5058320;28;20471;-63
2023/02/26 05:56:15;;;;;;;4.67;1.80;;;;;;;;;;5058211;28;20447;-63
2023/02/26 05:58:44;;;;;;;1.70;1.60;;;;;;;;;;5058318;28;20441;-63
2023/02/26 06:01:12;;;;;;;2.23;1.77;;;;;;;;;;5057900;28;20476;-63
2023/02/26 06:03:43;;;;;;;2.03;1.77;;;;;;;;;;5057851;28;20461;-63
2023/02/26 06:06:12;;;;;;;2.77;1.90;;;;;;;;;;5057679;28;21018;-63
2023/02/26 06:08:40;;;;;;;4.03;2.03;;;;;;;;;;5057930;28;20851;-64
2023/02/26 06:11:09;;;;;;;1.80;1.70;;;;;;;;;;5049131;28;20438;-63
2023/02/26 06:13:36;;;;;;;9.47;2.60;;;;;;;;;;5046323;28;20482;-64
2023/02/26 06:16:05;;;;;;;3.13;2.17;;;;;;;;;;5043734;28;20439;-64
2023/02/26 06:18:33;;;;;;;1.80;1.70;;;;;;;;;;5046754;28;20440;-63
2023/02/26 06:21:01;;;;;;;1.50;1.40;;;;;;;;;;5047618;28;20487;-63
2023/02/26 06:23:31;;;;;;;3.07;1.77;;;;;;;;;;5045871;28;20460;-64
2023/02/26 06:25:59;;;;;;;1.57;1.47;;;;;;;;;;5044185;28;20506;-64
2023/02/26 06:28:27;;;;;;;3.07;2.13;;;;;;;;;;5043336;28;20470;-64
2023/02/26 06:30:55;;;;;;;2.10;2.00;;;;;;;;;;5059112;28;20489;-61
2023/02/26 06:33:23;;;;;;;2.10;1.63;;;;;;;;;;5042381;28;20464;-61
2023/02/26 06:35:51;;;;;;;4.67;1.97;;;;;;;;;;5045362;28;20468;-61
2023/02/26 06:38:20;;;;;;;4.40;1.93;;;;;;;;;;5044821;28;20442;-62
2023/02/26 06:40:49;;;;;;;4.00;2.77;;;;;;;;;;5044947;28;20918;-61
2023/02/26 06:43:17;;;;;;;1.80;1.70;;;;;;;;;;5042737;28;20473;-61
2023/02/26 06:45:48;;;;;;;3.70;1.90;;;;;;;;;;5037429;28;20482;-61
2023/02/26 06:48:16;;;;;;;4.47;1.90;;;;;;;;;;5040415;28;20528;-61
2023/02/26 06:50:44;;;;;;;1.63;1.53;;;;;;;;;;5041443;28;20857;-61
2023/02/26 06:53:12;;;;;;;1.57;1.47;;;;;;;;;;5041282;28;20991;-61
2023/02/26 06:55:43;;;;;;;2.10;1.83;;;;;;;;;;5042083;28;20457;-61
2023/02/26 06:58:13;;;;;;;1.70;1.60;;;;;;;;;;5041644;28;20446;-61
2023/02/26 07:00:41;;;;;;;2.90;2.47;;;;;;;;;;5044887;28;20460;-62
2023/02/26 07:03:12;;;;;;;2.43;2.13;;;;;;;;;;5050430;28;20458;-61
2023/02/26 07:05:40;;;;;;;3.27;1.90;;;;;;;;;;5049900;28;20506;-61
2023/02/26 07:08:08;;;;;;;7.13;2.30;;;;;;;;;;5049344;28;20462;-61
2023/02/26 07:10:36;;;;;;;1.70;1.60;;;;;;;;;;5049747;28;20505;-61
2023/02/26 07:13:04;;;;;;;1.70;1.50;;;;;;;;;;5049748;28;20460;-61
2023/02/26 07:15:34;;;;;;;6.23;1.70;;;;;;;;;;5049009;28;20520;-61
2023/02/26 07:18:02;;;;;;;2.73;2.00;;;;;;;;;;5050313;28;20500;-61
2023/02/26 07:20:30;;;;;;;4.17;1.57;;;;;;;;;;5051965;28;20458;-62
2023/02/26 07:22:58;;;;;;;1.40;1.30;;;;;;;;;;5056475;28;21002;-62
2023/02/26 07:25:26;;;;;;;1.50;1.50;;;;;;;;;;5049168;28;20440;-61
2023/02/26 07:27:55;;;;;;;2.40;1.90;;;;;;;;;;5050410;28;20522;-62
2023/02/26 07:30:23;;;;;;;1.90;1.80;;;;;;;;;;5049194;28;20459;-61
2023/02/26 07:32:52;;;;;;;5.50;2.03;;;;;;;;;;5048686;28;20453;-61
2023/02/26 07:35:20;;;;;;;2.93;2.37;;;;;;;;;;5053041;28;20976;-61
2023/02/26 07:37:48;;;;;;;3.43;1.93;;;;;;;;;;5051727;28;20456;-61
2023/02/26 07:40:16;;;;;;;1.67;1.57;;;;;;;;;;5051243;28;20936;-62
2023/02/26 07:42:44;;;;;;;2.77;1.50;;;;;;;;;;5047302;28;20490;-61
2023/02/26 07:45:12;;;;;;;2.00;1.70;;;;;;;;;;5049362;28;20895;-61
2023/02/26 07:47:40;;;;;;;1.60;1.50;;;;;;;;;;5046804;28;20478;-61
2023/02/26 07:50:11;;;;;;;2.97;1.70;;;;;;;;;;5046462;28;20476;-62
2023/02/26 07:52:39;;;;;;;1.70;1.60;;;;;;;;;;5049560;28;20989;-62
2023/02/26 07:55:07;;;;;;;1.70;1.50;;;;;;;;;;5047273;28;21259;-62
2023/02/26 07:57:35;;;;;;;2.37;1.73;;;;;;;;;;5050227;28;20439;-62
2023/02/26 08:00:04;;;;;;;2.73;1.87;;;;;;;;;;5046714;28;20442;-62
2023/02/26 08:02:34;;;;;;;3.33;1.73;;;;;;;;;;5047938;28;20433;-62
2023/02/26 08:05:02;;;;;;;1.23;1.13;;;;;;;;;;5046067;28;20528;-61
2023/02/26 08:07:32;;;;;;;2.00;1.90;;;;;;;;;;5048327;28;20469;-61
2023/02/26 08:10:00;;;;;;;2.13;1.40;;;;;;;;;;5048140;28;20480;-61
2023/02/26 08:12:28;;;;;;;1.93;1.73;;;;;;;;;;5052051;28;20464;-61
2023/02/26 08:14:56;;;;;;;2.80;1.90;;;;;;;;;;5039938;28;20525;-61
2023/02/26 08:17:24;;;;;;;2.00;1.50;;;;;;;;;;5039890;28;20435;-61
2023/02/26 08:19:52;;;;;;;2.37;1.53;;;;;;;;;;5040086;28;20446;-61
2023/02/26 08:22:20;;;;;;;2.07;1.60;;;;;;;;;;5044932;28;20431;-61
2023/02/26 08:24:50;;;;;;;1.90;1.80;;;;;;;;;;5047737;28;20852;-61
2023/02/26 08:27:18;;;;;;;1.77;1.43;;;;;;;;;;5044850;28;20510;-61
2023/02/26 08:29:49;;;;;;;3.63;1.70;;;;;;;;;;5039623;28;20807;-61
2023/02/26 08:32:18;;;;;;;1.73;1.50;;;;;;;;;;5039800;28;20472;-61
2023/02/26 08:34:46;;;;;;;2.90;1.60;;;;;;;;;;5045837;28;20461;-62
2023/02/26 08:37:16;;;;;;;1.70;1.60;;;;;;;;;;5059666;28;20480;-61
2023/02/26 08:39:44;;;;;;;1.60;1.37;;;;;;;;;;5047378;28;20550;-61
2023/02/26 08:42:15;;;;;;;5.33;1.80;;;;;;;;;;5039653;28;20450;-61
2023/02/26 08:44:43;;;;;;;2.63;1.83;;;;;;;;;;5039250;28;20469;-61
2023/02/26 08:47:11;;;;;;;1.90;1.70;;;;;;;;;;5045995;28;21000;-61
2023/02/26 08:49:43;;;;;;;3.23;1.67;;;;;;;;;;5059128;28;20887;-61
2023/02/26 08:52:11;;;;;;;1.97;1.77;;;;;;;;;;5059189;28;20506;-61
2023/02/26 08:54:39;;;;;;;2.40;1.70;;;;;;;;;;5055479;28;20481;-61
2023/02/26 08:57:07;;;;;;;1.80;1.70;;;;;;;;;;5055512;28;20956;-61
2023/02/26 08:59:37;;;;;;;1.90;1.80;;;;;;;;;;5049682;28;20442;-61
2023/02/26 09:02:05;;;;;;;2.23;1.80;;;;;;;;;;5049104;28;20442;-60
2023/02/26 09:04:33;;;;;;;2.33;2.07;;;;;;;;;;5049084;28;20549;-60
2023/02/26 09:07:01;;;;;;;1.80;1.70;;;;;;;;;;5048692;28;20509;-60
2023/02/26 09:09:29;;;;;;;2.37;1.90;;;;;;;;;;5048464;28;20492;-61
2023/02/26 09:11:57;;;;;;;2.27;1.77;;;;;;;;;;5046608;28;20512;-61
2023/02/26 09:14:25;;;;;;;1.80;1.70;;;;;;;;;;5050355;28;20449;-61
2023/02/26 09:16:55;;;;;;;8.70;2.13;;;;;;;;;;5044999;28;20456;-61
2023/02/26 09:19:23;;;;;;;3.00;1.50;;;;;;;;;;5048963;28;20434;-61
2023/02/26 09:21:51;;;;;;;2.30;2.10;;;;;;;;;;5044712;28;20439;-61
2023/02/26 09:24:19;;;;;;;2.40;1.57;;;;;;;;;;5045637;28;20464;-61
2023/02/26 09:26:47;;;;;;;2.20;2.10;;;;;;;;;;5043832;28;20447;-61
2023/02/26 09:29:15;;;;;;;3.40;1.87;;;;;;;;;;5046915;28;20462;-61
2023/02/26 09:31:43;;;;;;;4.23;2.07;;;;;;;;;;5050016;28;20525;-61
2023/02/26 09:34:12;;;;;;;2.63;1.53;;;;;;;;;;5045200;28;20455;-61
2023/02/26 09:36:42;;;;;;;1.70;1.60;;;;;;;;;;5048466;28;20466;-61
2023/02/26 09:39:10;;;;;;;3.27;2.00;;;;;;;;;;5051380;28;20441;-60
2023/02/26 09:41:40;;;;;;;2.77;1.90;;;;;;;;;;5043175;28;21010;-61
2023/02/26 09:44:11;;;;;;;2.93;2.00;;;;;;;;;;5037888;28;20528;-61
2023/02/26 09:46:41;;;;;;;2.73;2.30;;;;;;;;;;5037775;28;20453;-60
2023/02/26 09:49:16;;;;;;;1.97;1.87;;;;;;;;;;5057172;28;20538;-60
2023/02/26 09:51:44;;;;;;;1.60;1.50;;;;;;;;;;5057892;28;20468;-61
2023/02/26 09:54:15;;;;;;;1.80;1.70;;;;;;;;;;5057642;28;20573;-61
2023/02/26 09:56:43;;;;;;;1.87;1.77;;;;;;;;;;5057408;28;20512;-61
2023/02/26 09:59:11;;;;;;;6.03;1.90;;;;;;;;;;5056973;28;20890;-61
2023/02/26 10:01:44;;;;;;;1.43;1.40;;;;;;;;;;5057498;28;20441;-61
2023/02/26 10:04:18;;;;;;;2.37;1.73;;;;;;;;;;5056650;28;20469;-61
2023/02/26 10:06:52;;;;;;;2.03;1.90;;;;;;;;;;5049564;28;20481;-61
2023/02/26 10:09:31;;;;;;;1.33;1.33;;;;;;;;;;5037643;28;20521;-61
2023/02/26 10:12:02;;;;;;;3.50;2.10;;;;;;;;;;5037721;28;20450;-60
2023/02/26 10:14:33;;;;;;;2.60;1.77;;;;;;;;;;5037180;28;20462;-61
2023/02/26 10:17:02;;;;;;;1.53;1.37;;;;;;;;;;5037171;28;20535;-61
2023/02/26 10:19:34;;;;;;;2.03;1.93;;;;;;;;;;5042997;28;20502;-60
2023/02/26 10:22:04;;;;;;;2.97;1.77;;;;;;;;;;5055494;28;20449;-60
2023/02/26 10:24:37;;;;;;;2.33;1.80;;;;;;;;;;5057414;28;20475;-61
2023/02/26 10:27:06;;;;;;;1.70;1.60;;;;;;;;;;5057284;28;20445;-60
2023/02/26 10:29:36;;;;;;;1.67;1.57;;;;;;;;;;5056027;28;20492;-61
2023/02/26 10:32:09;;;;;;;2.20;1.77;;;;;;;;;;5057000;28;20444;-61
2023/02/26 10:34:42;;;;;;;2.10;1.53;;;;;;;;;;5057052;28;20480;-61
2023/02/26 10:37:13;;;;;;;1.77;1.67;;;;;;;;;;5056814;28;20454;-60
2023/02/26 10:39:44;;;;;;;2.03;1.53;;;;;;;;;;5046756;28;20434;-64
2023/02/26 10:42:13;;;;;;;2.73;1.87;;;;;;;;;;5057166;28;20484;-63
2023/02/26 10:44:45;;;;;;;4.80;1.90;;;;;;;;;;5056724;28;20469;-61
2023/02/26 10:47:18;;;;;;;3.60;1.97;;;;;;;;;;5057305;28;20452;-62
2023/02/26 10:49:51;;;;;;;1.77;1.63;;;;;;;;;;5056704;28;20473;-61
2023/02/26 10:52:20;;;;;;;2.17;1.70;;;;;;;;;;5057178;28;20434;-61
2023/02/26 10:54:55;;;;;;;1.70;1.60;;;;;;;;;;5053072;28;20481;-61
2023/02/26 10:57:27;;;;;;;4.03;1.50;;;;;;;;;;5057157;28;20441;-62
2023/02/26 10:59:55;;;;;;;1.77;1.40;;;;;;;;;;5056818;28;20442;-61
2023/02/26 11:02:33;;;;;;;1.57;1.43;;;;;;;;;;5057102;28;20456;-61
2023/02/26 11:05:03;;;;;;;1.80;1.17;;;;;;;;;;5057060;28;20451;-61
2023/02/26 11:07:36;;;;;;;1.57;1.43;;;;;;;;;;5057131;28;20453;-61
2023/02/26 11:10:04;;;;;;;3.73;1.77;;;;;;;;;;5056745;28;20488;-61
2023/02/26 11:12:32;;;;;;;1.50;1.40;;;;;;;;;;5052690;28;20470;-62
2023/02/26 11:15:01;;;;;;;2.57;1.60;;;;;;;;;;5036580;28;20454;-61
2023/02/26 11:17:31;;;;;;;1.40;1.30;;;;;;;;;;5036767;28;20448;-62
2023/02/26 11:20:01;;;;;;;2.23;1.37;;;;;;;;;;5046199;28;20473;-62
2023/02/26 11:22:32;;;;;;;1.27;1.27;;;;;;;;;;5037590;28;20442;-62
2023/02/26 11:25:00;;;;;;;2.10;1.53;;;;;;;;;;5036849;28;20872;-61
2023/02/26 11:27:31;;;;;;;1.50;1.40;;;;;;;;;;5037179;28;20438;-61
2023/02/26 11:30:02;;;;;;;1.40;1.30;;;;;;;;;;5047169;28;20901;-62
2023/02/26 11:32:32;;;;;;;2.67;1.77;;;;;;;;;;5047690;28;20451;-61
2023/02/26 11:35:00;;;;;;;1.23;1.23;;;;;;;;;;5052971;28;20952;-62
2023/02/26 11:37:28;;;;;;;3.07;1.50;;;;;;;;;;5060675;28;20476;-61
2023/02/26 11:39:59;;;;;;;1.40;1.30;;;;;;;;;;5046786;28;20449;-61
2023/02/26 11:42:31;;;;;;;1.57;1.40;;;;;;;;;;5040303;28;20809;-62
2023/02/26 11:44:59;;;;;;;1.40;1.40;;;;;;;;;;5040246;28;20450;-62
2023/02/26 11:47:31;;;;;;;1.43;1.30;;;;;;;;;;5055241;28;20445;-62
2023/02/26 11:50:03;;;;;;;8.77;4.60;;;;;;;;;;5060221;28;20564;-62
2023/02/26 11:52:33;;;;;;;2.63;1.60;;;;;;;;;;5060245;28;20484;-61
2023/02/26 11:55:04;;;;;;;1.60;1.37;;;;;;;;;;5059882;28;20993;-61
2023/02/26 11:57:33;;;;;;;1.47;1.27;;;;;;;;;;5060278;28;20534;-61
2023/02/26 12:00:01;;;;;;;4.03;1.67;;;;;;;;;;5059824;28;20445;-61
2023/02/26 12:02:33;;;;;;;1.30;1.20;;;;;;;;;;5059765;28;20791;-60
2023/02/26 12:05:04;;;;;;;1.97;1.07;;;;;;;;;;5053262;28;20446;-64
2023/02/26 12:07:32;;;;;;;8.53;4.73;;;;;;;;;;5039830;28;20810;-63
2023/02/26 12:10:00;;;;;;;10.50;5.40;;;;;;;;;;5039819;28;20485;-61
2023/02/26 12:12:42;;;;;;;2.13;1.93;;;;;;;;;;5039406;28;20501;-61
2023/02/26 12:15:19;;;;;;;1.50;1.40;;;;;;;;;;5039470;28;20529;-61
2023/02/26 12:18:05;;;;;;;1.30;1.20;;;;;;;;;;5039680;28;20442;-61
2023/02/26 12:20:38;;;;;;;0.80;0.80;;;;;;;;;;5052205;28;20452;-61
2023/02/26 12:23:16;;;;;;;0.90;0.90;;;;;;;;;;5039605;28;20521;-61
2023/02/26 12:25:49;;;;;;;1.30;1.20;;;;;;;;;;5039385;28;20806;-61
2023/02/26 12:28:28;;;;;;;1.40;1.30;;;;;;;;;;5039643;28;20529;-62
2023/02/26 12:31:02;;;;;;;1.60;1.47;;;;;;;;;;5046067;28;20577;-61
2023/02/26 12:33:38;;;;;;;1.80;1.20;;;;;;;;;;5049905;28;20464;-61
2023/02/26 12:36:16;;;;;;;2.03;1.50;;;;;;;;;;5045221;28;20556;-62
2023/02/26 12:38:49;;;;;;;1.80;1.10;;;;;;;;;;5047275;28;20492;-63
2023/02/26 12:41:41;;;;;;;1.10;1.10;;;;;;;;;;5039258;28;20446;-63
2023/02/26 12:44:15;;;;;;;1.47;1.37;;;;;;;;;;5033458;28;20470;-63
2023/02/26 12:46:49;;;;;;;1.30;1.30;;;;;;;;;;5038681;28;20758;-63
2023/02/26 12:49:28;;;;;;;1.63;1.17;;;;;;;;;;5038992;28;20546;-63
2023/02/26 12:52:03;;;;;;;2.53;1.30;;;;;;;;;;5039189;28;20473;-62
2023/02/26 12:54:41;;;;;;;5.03;1.30;;;;;;;;;;5045684;28;20504;-63
2023/02/26 12:57:27;;;;;;;2.00;0.93;;;;;;;;;;5058608;28;20468;-63
2023/02/26 13:00:05;;;;;;;2.53;1.30;;;;;;;;;;5058671;28;20473;-62
2023/02/26 13:02:46;;;;;;;1.07;0.97;;;;;;;;;;5057929;28;20483;-62
2023/02/26 13:05:24;;;;;;;2.10;1.43;;;;;;;;;;5058534;28;20945;-62
2023/02/26 13:08:04;;;;;;;1.00;1.00;;;;;;;;;;5058905;28;20441;-62
2023/02/26 13:10:38;;;;;;;1.50;1.40;;;;;;;;;;5058694;28;20487;-62
2023/02/26 13:13:12;;;;;;;1.23;1.13;;;;;;;;;;5046355;28;20472;-62
2023/02/26 13:15:50;;;;;;;3.97;1.20;;;;;;;;;;5038468;28;20450;-62
2023/02/26 13:18:22;;;;;;;2.50;1.20;;;;;;;;;;5038353;28;20905;-62
2023/02/26 13:20:55;;;;;;;3.00;1.30;;;;;;;;;;5048721;28;20516;-63
2023/02/26 13:23:25;;;;;;;2.47;1.40;;;;;;;;;;5057577;28;20507;-63
2023/02/26 13:25:54;;;;;;;2.80;1.30;;;;;;;;;;5047585;28;20439;-63
2023/02/26 13:28:26;;;;;;;1.00;0.90;;;;;;;;;;5045154;28;20485;-63
2023/02/26 13:30:56;;;;;;;4.93;1.40;;;;;;;;;;5057896;28;20491;-63
2023/02/26 13:33:27;;;;;;;6.63;1.47;;;;;;;;;;5056224;28;20457;-63
2023/02/26 13:35:56;;;;;;;1.77;1.40;;;;;;;;;;5038331;28;20482;-63
2023/02/26 13:38:28;;;;;;;1.50;0.90;;;;;;;;;;5048422;28;20438;-63
2023/02/26 13:41:00;;;;;;;0.83;0.83;;;;;;;;;;5038229;28;20457;-63
2023/02/26 13:43:33;;;;;;;1.33;1.20;;;;;;;;;;5048637;28;20531;-63
2023/02/26 13:46:11;;;;;;;1.60;1.50;;;;;;;;;;5052729;28;20526;-63
2023/02/26 13:48:43;;;;;;;2.53;1.10;;;;;;;;;;5041534;28;20442;-63
2023/02/26 13:51:14;;;;;;;1.90;1.50;;;;;;;;;;5038012;28;20993;-63
2023/02/26 13:53:53;;;;;;;3.07;1.50;;;;;;;;;;5047193;28;20974;-64
2023/02/26 13:56:22;;;;;;;1.23;1.17;;;;;;;;;;5049051;28;20472;-64
2023/02/26 13:58:53;;;;;;;1.53;1.30;;;;;;;;;;5052977;28;20448;-63
2023/02/26 14:01:28;;;;;;;1.40;1.30;;;;;;;;;;5057353;28;20525;-63
2023/02/26 14:04:08;;;;;;;1.50;1.40;;;;;;;;;;5047079;28;20481;-63
2023/02/26 14:06:40;;;;;;;1.23;1.23;;;;;;;;;;5057290;28;20445;-63
2023/02/26 14:09:25;;;;;;;3.07;1.40;;;;;;;;;;5057685;28;20473;-63
2023/02/26 14:12:00;;;;;;;1.73;1.40;;;;;;;;;;5057232;28;20441;-63
2023/02/26 14:14:34;;;;;;;1.20;1.20;;;;;;;;;;5057122;28;20534;-63
2023/02/26 14:17:30;;;;;;;1.10;1.10;;;;;;;;;;5057256;28;20499;-63
2023/02/26 14:20:15;;;;;;;2.30;1.00;;;;;;;;;;5019870;28;20956;-64
2023/02/26 14:22:46;;;;;;;6.47;1.30;;;;;;;;;;5047738;28;21286;-63
2023/02/26 14:25:18;;;;;;;1.50;1.40;;;;;;;;;;5037290;28;20925;-63
2023/02/26 14:27:46;;;;;;;1.40;1.10;;;;;;;;;;5037558;28;20446;-63
2023/02/26 14:30:19;;;;;;;1.00;0.90;;;;;;;;;;5037182;28;20478;-63
2023/02/26 14:32:49;;;;;;;1.37;1.27;;;;;;;;;;5038183;28;20488;-62
2023/02/26 14:35:20;;;;;;;6.13;1.70;;;;;;;;;;5040091;28;20481;-64
2023/02/26 14:37:50;;;;;;;1.97;1.40;;;;;;;;;;5049834;28;20441;-63
2023/02/26 14:40:19;;;;;;;2.43;1.50;;;;;;;;;;5055141;28;20441;-63
2023/02/26 14:42:50;;;;;;;0.90;0.90;;;;;;;;;;5037029;28;20488;-63
2023/02/26 14:45:23;;;;;;;1.17;1.00;;;;;;;;;;5036983;28;20442;-63
2023/02/26 14:47:51;;;;;;;1.37;1.37;;;;;;;;;;5037639;28;20461;-63
2023/02/26 14:50:22;;;;;;;2.67;1.23;;;;;;;;;;5037337;28;20512;-63
2023/02/26 14:52:55;;;;;;;3.60;1.30;;;;;;;;;;5038671;28;20467;-63
2023/02/26 14:55:30;;;;;;;1.50;1.10;;;;;;;;;;5057131;28;20445;-63
2023/02/26 14:58:07;;;;;;;6.20;1.20;;;;;;;;;;5057521;28;20448;-63
2023/02/26 15:00:40;;;;;;;2.00;1.00;;;;;;;;;;5057036;28;20456;-63
2023/02/26 15:03:20;;;;;;;1.00;1.00;;;;;;;;;;5056883;28;20863;-63